Time;durP1;ratioP1;P1;durP2;ratioP2;P2;SDS_P1;SDS_P2;PMS_P1;PMS_P2;Temp;Humidity;BMP_temperature;BMP_pressure;BME280_temperature;BME280_humidity;BME280_pressure;Samples;Min_cycle;Max_cycle;Signal;HPM_P1;HPM_P2
2022/02/05 00:05:40;;;;;;;8.48;2.60;;;2.80;94.70;;;;;;4989108;28;20061;-72
2022/02/05 00:20:24;;;;;;;9.45;3.03;;;3.00;94.30;;;;;;4978431;28;20049;-72
2022/02/05 00:43:06;;;;;;;2.97;1.15;;;2.60;94.10;;;;;;4979246;28;20022;-72
2022/02/05 00:45:35;;;;;;;5.55;0.90;;;2.60;94.00;;;;;;4991109;28;20030;-72
2022/02/05 00:48:02;;;;;;;6.55;1.30;;;2.60;94.00;;;;;;4987592;28;20026;-71
2022/02/05 00:50:30;;;;;;;4.00;0.88;;;2.60;94.00;;;;;;4996298;28;20701;-72
2022/02/05 00:53:01;;;;;;;7.45;1.25;;;2.60;94.00;;;;;;5000485;28;20022;-72
2022/02/05 00:55:30;;;;;;;3.58;0.63;;;2.60;94.00;;;;;;5002963;28;20137;-72
2022/02/05 00:58:02;;;;;;;6.38;1.40;;;2.60;94.20;;;;;;4995208;28;20390;-72
2022/02/05 01:00:28;;;;;;;4.80;1.10;;;2.60;94.20;;;;;;4997518;28;20033;-72
2022/02/05 01:02:54;;;;;;;6.70;1.00;;;2.70;94.10;;;;;;4983499;28;20481;-72
2022/02/05 01:05:20;;;;;;;2.63;1.23;;;2.70;94.10;;;;;;4985887;28;20022;-72
2022/02/05 01:07:46;;;;;;;4.30;1.27;;;2.70;94.00;;;;;;4994744;28;20018;-72
2022/02/05 01:10:13;;;;;;;3.58;1.33;;;2.80;93.90;;;;;;4992590;28;20038;-72
2022/02/05 01:12:42;;;;;;;9.57;1.67;;;2.70;93.80;;;;;;4979457;28;20037;-72
2022/02/05 01:15:08;;;;;;;3.05;1.33;;;2.70;93.90;;;;;;4989984;28;20129;-72
2022/02/05 01:17:41;;;;;;;9.38;1.77;;;2.70;93.70;;;;;;5003927;28;20029;-71
2022/02/05 01:22:53;;;;;;;7.80;2.00;;;2.70;93.60;;;;;;4991299;28;20041;-72
2022/02/05 01:25:23;;;;;;;6.80;1.92;;;2.70;93.60;;;;;;4992118;28;20536;-72
2022/02/05 01:27:54;;;;;;;4.37;1.37;;;2.70;93.70;;;;;;4990004;28;20018;-72
2022/02/05 01:30:25;;;;;;;8.00;1.92;;;2.70;93.60;;;;;;4988394;28;20026;-72
2022/02/05 01:33:04;;;;;;;7.90;2.22;;;2.60;93.70;;;;;;4997731;28;20030;-72
2022/02/05 01:54:15;;;;;;;11.43;4.28;;;2.80;93.80;;;;;;4992381;28;20338;-72
2022/02/05 01:56:51;;;;;;;9.88;3.75;;;2.80;94.00;;;;;;4984260;28;20109;-72
2022/02/05 01:59:28;;;;;;;7.68;4.43;;;2.90;94.10;;;;;;4991507;28;20026;-72
2022/02/05 02:04:50;;;;;;;12.88;5.40;;;2.80;94.60;;;;;;4988675;28;20064;-72
2022/02/05 02:14:04;;;;;;;13.38;6.07;;;2.90;94.60;;;;;;4982708;28;20049;-72
2022/02/05 02:16:24;;;;;;;13.18;6.38;;;2.90;94.70;;;;;;4998901;28;20050;-72
2022/02/05 02:18:58;;;;;;;14.60;5.65;;;2.90;94.80;;;;;;4995545;28;20038;-72
2022/02/05 02:24:04;;;;;;;12.52;5.40;;;2.90;94.40;;;;;;4995853;28;20026;-71
2022/02/05 02:26:52;;;;;;;10.40;5.13;;;2.90;94.50;;;;;;4997958;28;20453;-72
2022/02/05 02:29:30;;;;;;;14.60;4.97;;;2.90;94.30;;;;;;4994934;28;20030;-72
2022/02/05 02:31:57;;;;;;;9.10;4.47;;;2.90;94.30;;;;;;4994473;28;20498;-72
2022/02/05 02:34:28;;;;;;;15.07;5.25;;;2.90;94.30;;;;;;4988892;28;20033;-72
2022/02/05 02:36:59;;;;;;;13.65;6.07;;;2.90;94.20;;;;;;5002351;28;20629;-72
2022/02/05 02:39:30;;;;;;;12.88;5.88;;;2.90;94.20;;;;;;4998368;28;20029;-72
2022/02/05 02:42:02;;;;;;;13.93;4.85;;;2.90;94.10;;;;;;4994565;28;20169;-72
2022/02/05 02:44:28;;;;;;;14.77;5.05;;;2.90;94.10;;;;;;4994877;28;20024;-72
2022/02/05 02:46:53;;;;;;;13.63;4.03;;;2.80;94.20;;;;;;4999948;28;20117;-72
2022/02/05 02:49:35;;;;;;;17.75;4.20;;;2.90;94.20;;;;;;4994191;28;20026;-72
2022/02/05 02:57:37;;;;;;;10.77;3.20;;;2.90;94.10;;;;;;4996484;28;20064;-72
2022/02/05 03:00:07;;;;;;;8.77;2.80;;;2.90;93.70;;;;;;4997373;28;20057;-72
2022/02/05 03:02:32;;;;;;;12.77;3.15;;;2.90;93.60;;;;;;4991351;28;20113;-72
2022/02/05 03:04:58;;;;;;;16.40;3.03;;;3.00;93.20;;;;;;4985833;28;20440;-72
2022/02/05 03:07:25;;;;;;;13.82;3.03;;;3.00;92.90;;;;;;4993331;28;20030;-72
2022/02/05 03:09:52;;;;;;;16.23;2.35;;;3.00;92.90;;;;;;4988350;28;20038;-72
2022/02/05 03:12:19;;;;;;;5.10;2.13;;;3.10;92.60;;;;;;4985075;28;20029;-72
2022/02/05 03:14:45;;;;;;;7.90;2.03;;;3.00;92.70;;;;;;4988897;28;20406;-72
2022/02/05 03:17:18;;;;;;;9.88;2.45;;;3.00;93.20;;;;;;4996659;28;20045;-72
2022/02/05 03:19:50;;;;;;;8.82;2.35;;;3.00;93.60;;;;;;4989823;28;20057;-72
2022/02/05 03:22:18;;;;;;;10.60;2.13;;;2.80;94.10;;;;;;4997685;28;20019;-72
2022/02/05 03:24:44;;;;;;;6.18;1.58;;;2.30;94.00;;;;;;4989923;28;20018;-72
2022/02/05 03:27:12;;;;;;;7.05;1.15;;;2.00;94.60;;;;;;4998260;28;20037;-72
2022/02/05 03:29:40;;;;;;;2.45;0.93;;;1.90;94.80;;;;;;5001305;28;20041;-72
2022/02/05 03:32:06;;;;;;;3.42;1.00;;;1.90;95.10;;;;;;4985790;28;20058;-72
2022/02/05 03:34:31;;;;;;;3.03;1.25;;;2.00;95.00;;;;;;4993491;28;20061;-72
2022/02/05 03:36:57;;;;;;;4.95;1.30;;;1.90;95.10;;;;;;4993509;28;20438;-72
2022/02/05 03:39:23;;;;;;;3.60;0.98;;;1.90;95.20;;;;;;4993403;28;20022;-71
2022/02/05 03:41:49;;;;;;;3.17;0.80;;;1.90;95.30;;;;;;4992913;28;20077;-71
2022/02/05 03:44:14;;;;;;;6.15;1.27;;;1.90;95.40;;;;;;4991496;28;20469;-71
2022/02/05 03:46:40;;;;;;;5.43;0.95;;;1.90;95.50;;;;;;4984386;28;20062;-71
2022/02/05 03:49:06;;;;;;;5.68;1.25;;;2.00;95.60;;;;;;4981020;28;20041;-72
2022/02/05 03:51:31;;;;;;;5.63;1.42;;;1.90;95.60;;;;;;4987634;28;20045;-72
2022/02/05 03:53:59;;;;;;;8.32;1.83;;;1.90;95.70;;;;;;4988370;28;20060;-71
2022/02/05 03:56:24;;;;;;;7.05;1.88;;;2.00;95.80;;;;;;4989692;28;20022;-71
2022/02/05 03:58:50;;;;;;;7.25;2.10;;;2.10;95.70;;;;;;4991916;28;20100;-72
2022/02/05 04:01:15;;;;;;;6.35;1.70;;;2.10;95.70;;;;;;4980141;28;20084;-71
2022/02/05 04:03:41;;;;;;;14.52;2.05;;;2.10;95.70;;;;;;4995347;28;20064;-71
2022/02/05 04:06:06;;;;;;;8.05;1.83;;;2.10;95.60;;;;;;4978432;28;20019;-71
2022/02/05 04:08:32;;;;;;;5.28;1.63;;;2.10;95.60;;;;;;4996357;28;20034;-70
2022/02/05 04:11:05;;;;;;;4.72;1.33;;;2.10;95.70;;;;;;5000836;28;20041;-71
2022/02/05 04:16:24;;;;;;;6.95;1.60;;;2.10;95.60;;;;;;4984004;28;20097;-71
2022/02/05 04:18:54;;;;;;;7.40;1.73;;;2.10;95.60;;;;;;4993258;28;20037;-71
2022/02/05 04:21:21;;;;;;;10.45;2.42;;;2.10;95.60;;;;;;4983064;28;20032;-71
2022/02/05 04:23:48;;;;;;;7.93;2.25;;;2.20;95.60;;;;;;4989155;28;21865;-71
2022/02/05 04:26:15;;;;;;;8.68;2.75;;;2.10;95.60;;;;;;4981602;28;20025;-71
2022/02/05 04:28:41;;;;;;;13.10;2.53;;;2.20;95.60;;;;;;4982139;28;20045;-71
2022/02/05 04:31:06;;;;;;;13.73;3.60;;;2.20;95.50;;;;;;4993511;28;20365;-71
2022/02/05 04:33:32;;;;;;;18.25;3.25;;;2.20;95.60;;;;;;4995904;28;20026;-71
2022/02/05 04:35:58;;;;;;;14.25;4.20;;;2.20;95.60;;;;;;4991862;28;20030;-71
2022/02/05 04:38:24;;;;;;;18.48;4.13;;;2.30;95.60;;;;;;4988947;28;20031;-71
2022/02/05 04:40:55;;;;;;;18.08;4.53;;;2.30;95.50;;;;;;4992003;28;20125;-71
2022/02/05 04:51:42;;;;;;;17.90;3.67;;;2.50;95.50;;;;;;4994782;28;20464;-71
2022/02/05 05:02:36;;;;;;;16.85;2.83;;;2.70;95.30;;;;;;4990420;28;20057;-71
2022/02/05 05:10:33;;;;;;;9.68;1.58;;;2.40;95.20;;;;;;4999967;28;20034;-71
2022/02/05 05:13:05;;;;;;;7.40;1.25;;;2.20;95.10;;;;;;4993664;28;20033;-71
2022/02/05 05:20:59;;;;;;;2.42;0.70;;;1.10;95.20;;;;;;4988651;28;20068;-71
2022/02/05 05:23:25;;;;;;;4.53;0.80;;;1.10;95.60;;;;;;4983555;28;20413;-71
2022/02/05 05:25:50;;;;;;;3.05;1.08;;;1.00;95.80;;;;;;4993900;28;20861;-71
2022/02/05 05:28:16;;;;;;;4.70;1.00;;;1.00;95.80;;;;;;4994542;28;20054;-71
2022/02/05 05:30:41;;;;;;;8.90;1.40;;;1.10;96.20;;;;;;5000139;28;20022;-71
2022/02/05 05:33:08;;;;;;;6.00;1.08;;;1.20;96.40;;;;;;4992029;28;20049;-71
2022/02/05 05:35:33;;;;;;;4.57;1.20;;;1.40;96.40;;;;;;4989166;28;20083;-71
2022/02/05 05:37:59;;;;;;;10.15;1.77;;;1.60;96.40;;;;;;4988916;28;20453;-71
2022/02/05 05:40:24;;;;;;;9.13;1.50;;;1.60;96.30;;;;;;4986069;28;20030;-71
2022/02/05 05:43:00;;;;;;;9.15;1.05;;;1.60;96.30;;;;;;4985033;28;20027;-71
2022/02/05 05:46:01;;;;;;;10.38;1.70;;;1.70;96.20;;;;;;4982408;28;20440;-71
2022/02/05 05:48:54;;;;;;;4.28;1.40;;;1.60;96.20;;;;;;4986069;28;20109;-70
2022/02/05 05:51:18;;;;;;;7.55;1.50;;;1.70;96.20;;;;;;4989685;28;20034;-70
2022/02/05 05:53:44;;;;;;;8.23;1.27;;;1.60;96.20;;;;;;4990616;28;20097;-70
2022/02/05 05:56:09;;;;;;;6.25;1.17;;;1.60;96.10;;;;;;4987068;28;20101;-70
2022/02/05 05:58:35;;;;;;;12.30;1.83;;;1.60;96.10;;;;;;4997271;28;20350;-70
2022/02/05 06:01:00;;;;;;;16.05;1.60;;;1.60;96.00;;;;;;4999601;28;20443;-70
2022/02/05 06:03:26;;;;;;;6.95;1.30;;;1.60;96.00;;;;;;4991290;28;20026;-71
2022/02/05 06:05:51;;;;;;;7.78;1.17;;;1.50;96.00;;;;;;4987643;28;20114;-71
2022/02/05 06:08:18;;;;;;;12.07;1.40;;;1.50;96.00;;;;;;4985545;28;20466;-71
2022/02/05 06:10:44;;;;;;;5.28;1.00;;;1.50;96.00;;;;;;4992113;28;20022;-71
2022/02/05 06:13:10;;;;;;;10.95;1.50;;;1.50;96.00;;;;;;4983522;28;20046;-71
2022/02/05 06:15:38;;;;;;;15.23;1.38;;;1.50;95.80;;;;;;4979883;28;20082;-71
2022/02/05 06:18:04;;;;;;;4.97;1.08;;;1.50;95.70;;;;;;4981916;28;20366;-71
2022/02/05 06:20:29;;;;;;;6.60;1.10;;;1.50;95.60;;;;;;4980786;28;20041;-71
2022/02/05 06:22:55;;;;;;;8.98;1.05;;;1.40;95.50;;;;;;4975490;28;20042;-71
2022/02/05 06:25:20;;;;;;;3.67;0.80;;;1.40;95.50;;;;;;4981630;28;20078;-71
2022/02/05 06:27:46;;;;;;;12.43;1.15;;;1.50;95.40;;;;;;4976125;28;20092;-71
2022/02/05 06:30:12;;;;;;;8.13;1.05;;;1.50;95.20;;;;;;4987383;28;20389;-71
2022/02/05 06:32:37;;;;;;;6.90;1.15;;;1.50;95.00;;;;;;4991530;28;20150;-72
2022/02/05 06:35:05;;;;;;;7.88;1.10;;;1.50;94.80;;;;;;4997414;28;20034;-73
2022/02/05 06:37:30;;;;;;;7.97;1.13;;;1.50;94.70;;;;;;4987185;28;20623;-73
2022/02/05 06:39:56;;;;;;;9.18;1.02;;;1.50;94.70;;;;;;4990276;28;20070;-74
2022/02/05 06:42:21;;;;;;;4.80;1.08;;;1.50;94.70;;;;;;4981656;28;20030;-74
2022/02/05 06:44:47;;;;;;;5.10;1.33;;;1.60;94.40;;;;;;4987259;28;20041;-73
2022/02/05 06:47:12;;;;;;;4.88;1.27;;;1.60;94.40;;;;;;4984971;28;20082;-74
2022/02/05 06:49:38;;;;;;;16.73;1.77;;;1.60;94.20;;;;;;4992603;28;20567;-74
2022/02/05 06:52:04;;;;;;;4.75;1.10;;;1.60;94.30;;;;;;4992064;28;20029;-73
2022/02/05 06:54:30;;;;;;;7.80;1.60;;;1.60;94.30;;;;;;5001076;28;20492;-72
2022/02/05 06:56:56;;;;;;;13.40;1.98;;;1.60;94.40;;;;;;4993051;28;20022;-72
2022/02/05 06:59:21;;;;;;;14.32;1.80;;;1.50;94.50;;;;;;4990217;28;20431;-71
2022/02/05 07:01:47;;;;;;;16.08;1.90;;;1.50;94.70;;;;;;4989993;28;20269;-72
2022/02/05 07:04:12;;;;;;;10.77;1.77;;;1.50;94.80;;;;;;4993796;28;20017;-74
2022/02/05 07:06:38;;;;;;;12.10;2.20;;;1.60;95.00;;;;;;4996807;28;20521;-73
2022/02/05 07:09:05;;;;;;;12.68;2.47;;;1.60;94.90;;;;;;4986226;28;20382;-73
2022/02/05 07:11:30;;;;;;;14.32;2.13;;;1.60;95.00;;;;;;4984946;28;20030;-74
2022/02/05 07:13:57;;;;;;;14.40;2.25;;;1.70;95.20;;;;;;4990791;28;20136;-74
2022/02/05 07:16:32;;;;;;;19.63;3.38;;;1.80;95.30;;;;;;4992276;28;20097;-74
2022/02/05 07:21:34;;;;;;;15.02;2.78;;;2.00;95.30;;;;;;4978791;28;20023;-74
2022/02/05 07:29:16;;;;;;;16.63;3.25;;;2.10;95.00;;;;;;4994908;28;20443;-74
2022/02/05 07:31:47;;;;;;;21.98;3.35;;;2.10;95.00;;;;;;4993103;28;20026;-74
2022/02/05 07:34:15;;;;;;;18.75;3.17;;;2.20;94.80;;;;;;4990963;28;20068;-74
2022/02/05 07:36:40;;;;;;;24.02;3.33;;;2.30;94.80;;;;;;4997264;28;20026;-73
2022/02/05 07:39:06;;;;;;;16.85;2.95;;;2.30;94.80;;;;;;4991950;28;20040;-74
2022/02/05 07:41:33;;;;;;;16.02;3.17;;;2.30;94.70;;;;;;4991460;28;20158;-73
2022/02/05 07:43:59;;;;;;;23.77;3.42;;;2.30;94.60;;;;;;4981588;28;20122;-73
2022/02/05 07:46:26;;;;;;;19.73;2.55;;;2.20;94.60;;;;;;4997341;28;20038;-71
2022/02/05 07:48:52;;;;;;;23.65;3.83;;;2.20;94.70;;;;;;4993233;28;20085;-71
2022/02/05 07:51:18;;;;;;;17.67;3.67;;;2.30;94.60;;;;;;4989957;28;20426;-72
2022/02/05 07:53:45;;;;;;;15.73;3.67;;;2.20;94.70;;;;;;5006937;28;20062;-72
2022/02/05 07:56:11;;;;;;;15.05;3.13;;;2.30;94.70;;;;;;4994992;28;20563;-71
2022/02/05 07:58:37;;;;;;;16.77;2.75;;;2.20;94.60;;;;;;5002360;28;20062;-72
2022/02/05 08:01:03;;;;;;;10.98;2.10;;;2.20;94.70;;;;;;4997197;28;20770;-72
2022/02/05 08:03:29;;;;;;;22.52;2.80;;;2.20;94.70;;;;;;4985529;28;20085;-72
2022/02/05 08:05:58;;;;;;;19.30;3.30;;;2.30;94.60;;;;;;4976316;28;20026;-71
2022/02/05 08:08:26;;;;;;;15.15;2.92;;;2.30;94.60;;;;;;4993897;28;20085;-72
2022/02/05 08:11:03;;;;;;;19.65;3.50;;;2.30;94.60;;;;;;4990501;28;20030;-72
2022/02/05 08:13:31;;;;;;;26.58;3.40;;;2.30;94.60;;;;;;4985391;28;20026;-73
2022/02/05 08:16:09;;;;;;;19.17;3.22;;;2.40;94.50;;;;;;4986865;28;20030;-72
2022/02/05 08:18:37;;;;;;;17.05;3.40;;;2.50;94.30;;;;;;4986721;28;20041;-73
2022/02/05 08:21:03;;;;;;;11.85;2.42;;;2.50;94.20;;;;;;4983219;28;20041;-73
2022/02/05 08:23:28;;;;;;;25.40;3.65;;;2.50;94.10;;;;;;4988733;28;20029;-73
2022/02/05 08:25:55;;;;;;;12.55;2.60;;;2.60;94.00;;;;;;4984512;28;20041;-73
2022/02/05 08:28:21;;;;;;;17.50;3.45;;;2.60;93.70;;;;;;4990689;28;20027;-73
2022/02/05 08:30:47;;;;;;;19.13;3.42;;;2.70;93.60;;;;;;4988956;28;20038;-73
2022/02/05 08:33:12;;;;;;;19.73;2.70;;;2.80;93.40;;;;;;4985635;28;20017;-73
2022/02/05 08:35:38;;;;;;;16.55;3.13;;;2.80;93.20;;;;;;4991384;28;20579;-73
2022/02/05 08:38:04;;;;;;;14.98;2.80;;;2.90;93.00;;;;;;4990181;28;20085;-73
2022/02/05 08:40:30;;;;;;;11.68;2.63;;;3.00;92.30;;;;;;4984465;28;20031;-73
2022/02/05 08:42:56;;;;;;;13.77;2.60;;;3.00;92.30;;;;;;4999498;28;20019;-73
2022/02/05 08:45:22;;;;;;;12.80;2.63;;;3.10;92.30;;;;;;4987622;28;20085;-72
2022/02/05 08:47:48;;;;;;;16.90;2.85;;;3.10;91.90;;;;;;4983907;28;20034;-72
2022/02/05 08:50:13;;;;;;;7.32;2.20;;;3.20;91.60;;;;;;4986123;28;20037;-73
2022/02/05 08:52:40;;;;;;;21.05;3.38;;;3.30;91.40;;;;;;4985509;28;20030;-73
2022/02/05 08:55:07;;;;;;;18.35;2.85;;;3.30;91.50;;;;;;4994268;28;20490;-73
2022/02/05 08:57:35;;;;;;;15.07;2.50;;;3.40;91.20;;;;;;4989003;28;20041;-73
2022/02/05 09:00:11;;;;;;;13.90;3.28;;;3.40;91.40;;;;;;4984434;28;20073;-73
2022/02/05 09:02:45;;;;;;;16.08;3.00;;;3.40;91.20;;;;;;4983291;28;20455;-73
2022/02/05 09:05:17;;;;;;;18.88;2.80;;;3.50;90.90;;;;;;4987333;28;20030;-70
2022/02/05 09:07:43;;;;;;;15.68;2.75;;;3.60;90.60;;;;;;4978642;28;20469;-70
2022/02/05 09:15:01;;;;;;;13.00;3.17;;;3.80;90.70;;;;;;4984557;28;20057;-70
2022/02/05 09:17:27;;;;;;;5.85;2.03;;;3.80;90.60;;;;;;4982046;28;20033;-73
2022/02/05 09:19:53;;;;;;;13.43;2.47;;;3.70;90.30;;;;;;4983129;28;20106;-73
2022/02/05 09:22:19;;;;;;;18.70;2.65;;;3.60;90.00;;;;;;4984797;28;20090;-73
2022/02/05 09:24:44;;;;;;;16.70;2.80;;;3.60;90.50;;;;;;4985935;28;20027;-74
2022/02/05 09:27:12;;;;;;;13.50;2.60;;;3.80;90.20;;;;;;4985452;28;20117;-73
2022/02/05 09:29:47;;;;;;;15.10;2.78;;;3.80;90.00;;;;;;4977670;28;20379;-73
2022/02/05 09:32:13;;;;;;;9.80;2.85;;;3.80;90.60;;;;;;4983008;28;20043;-73
2022/02/05 09:34:38;;;;;;;12.65;3.15;;;3.80;90.50;;;;;;4985399;28;20134;-73
2022/02/05 09:37:04;;;;;;;13.73;2.90;;;3.80;90.70;;;;;;4985486;28;20018;-73
2022/02/05 09:39:29;;;;;;;17.98;3.30;;;3.90;90.70;;;;;;4979679;28;20026;-73
2022/02/05 09:41:55;;;;;;;13.93;2.92;;;4.00;90.10;;;;;;4977521;28;20054;-73
2022/02/05 09:44:30;;;;;;;11.50;2.92;;;4.10;90.20;;;;;;4985566;28;20033;-73
2022/02/05 09:46:56;;;;;;;7.45;2.15;;;4.10;90.00;;;;;;4984727;28;20421;-72
2022/02/05 09:49:24;;;;;;;12.18;3.25;;;4.10;89.50;;;;;;4982464;28;20034;-75
2022/02/05 09:52:06;;;;;;;17.15;3.20;;;4.20;89.70;;;;;;4984100;28;20018;-74
2022/02/05 09:54:31;;;;;;;21.25;3.03;;;4.30;89.50;;;;;;4987248;28;20579;-75
2022/02/05 09:56:57;;;;;;;15.15;2.97;;;4.30;89.40;;;;;;4978905;28;20058;-75
2022/02/05 09:59:22;;;;;;;13.55;2.40;;;4.30;89.40;;;;;;4983033;28;20335;-74
2022/02/05 10:01:48;;;;;;;20.17;3.55;;;4.30;89.20;;;;;;4989575;28;20038;-75
2022/02/05 10:04:13;;;;;;;14.32;3.33;;;4.50;89.50;;;;;;4974765;28;20078;-75
2022/02/05 10:06:49;;;;;;;22.13;4.45;;;4.60;89.10;;;;;;4980517;28;20190;-75
2022/02/05 10:09:16;;;;;;;14.55;2.95;;;4.70;88.60;;;;;;5001827;28;20046;-75
2022/02/05 10:11:49;;;;;;;19.20;3.38;;;4.80;88.60;;;;;;4982481;28;20088;-74
2022/02/05 10:14:34;;;;;;;18.95;3.20;;;4.70;87.40;;;;;;4979580;28;20023;-75
2022/02/05 10:17:04;;;;;;;9.40;2.65;;;4.70;88.60;;;;;;4983185;28;20038;-75
2022/02/05 10:19:51;;;;;;;14.45;2.90;;;4.70;88.70;;;;;;4979549;28;20045;-73
2022/02/05 10:22:19;;;;;;;15.68;3.50;;;4.80;88.60;;;;;;4993199;28;20370;-73
2022/02/05 10:24:56;;;;;;;12.82;3.60;;;4.90;88.60;;;;;;4988694;28;20018;-73
2022/02/05 10:27:37;;;;;;;11.70;3.17;;;4.90;88.30;;;;;;4994195;28;20017;-73
2022/02/05 10:30:22;;;;;;;14.95;2.92;;;5.10;87.40;;;;;;4998256;28;20034;-73
2022/02/05 10:32:56;;;;;;;12.13;3.40;;;5.00;87.20;;;;;;4985225;28;20534;-73
2022/02/05 10:37:56;;;;;;;17.13;2.90;;;5.40;86.10;;;;;;4981217;28;20654;-73
2022/02/05 10:40:28;;;;;;;14.70;3.78;;;5.20;86.00;;;;;;4987753;28;20026;-73
2022/02/05 10:43:07;;;;;;;11.07;2.60;;;5.10;86.00;;;;;;4974103;28;20022;-72
2022/02/05 10:45:47;;;;;;;10.05;2.53;;;5.10;86.90;;;;;;4980017;28;20043;-73
2022/02/05 10:48:16;;;;;;;11.40;2.73;;;5.10;86.00;;;;;;4990285;28;20030;-73
2022/02/05 10:50:43;;;;;;;6.85;2.53;;;5.10;86.30;;;;;;4991335;28;20030;-73
2022/02/05 10:53:27;;;;;;;10.35;2.65;;;5.10;86.20;;;;;;4984383;28;20026;-73
2022/02/05 10:56:06;;;;;;;8.60;2.65;;;5.10;86.90;;;;;;4988102;28;20030;-72
2022/02/05 11:07:16;;;;;;;12.02;3.15;;;5.00;85.20;;;;;;4988678;28;20394;-74
2022/02/05 11:09:48;;;;;;;13.85;3.05;;;5.00;85.40;;;;;;4988129;28;20225;-73
2022/02/05 11:20:18;;;;;;;11.13;3.40;;;5.30;84.40;;;;;;4982582;28;20027;-77
2022/02/05 11:22:50;;;;;;;13.88;3.17;;;5.30;84.10;;;;;;4983477;28;20417;-73
2022/02/05 11:25:18;;;;;;;10.68;3.10;;;5.30;84.00;;;;;;4989015;28;20019;-73
2022/02/05 11:27:49;;;;;;;14.30;3.50;;;5.40;83.80;;;;;;4999147;28;20534;-73
2022/02/05 11:30:33;;;;;;;10.93;2.78;;;5.40;83.70;;;;;;4992710;28;20088;-73
2022/02/05 11:33:18;;;;;;;10.15;2.92;;;5.40;83.50;;;;;;4987145;28;20026;-73
2022/02/05 11:38:37;;;;;;;12.98;2.70;;;5.40;82.80;;;;;;4985574;28;20109;-75
2022/02/05 11:41:06;;;;;;;8.35;2.58;;;5.30;83.00;;;;;;4982409;28;20034;-74
2022/02/05 11:43:34;;;;;;;12.93;2.55;;;5.30;82.80;;;;;;4984439;28;20025;-74
2022/02/05 11:46:13;;;;;;;13.50;2.65;;;5.50;81.90;;;;;;4994251;28;20025;-71
2022/02/05 11:48:50;;;;;;;13.80;2.45;;;5.70;80.90;;;;;;4991241;28;20050;-71
2022/02/05 11:51:22;;;;;;;12.75;2.78;;;5.90;82.20;;;;;;4989740;28;20157;-71
2022/02/05 11:54:00;;;;;;;17.65;2.85;;;5.70;81.50;;;;;;4987822;28;20018;-72
2022/02/05 11:57:18;;;;;;;21.35;3.05;;;5.70;82.10;;;;;;4989614;28;20521;-71
2022/02/05 11:59:56;;;;;;;18.92;2.90;;;5.60;82.60;;;;;;4978625;28;20505;-72
2022/02/05 12:02:22;;;;;;;10.80;2.25;;;5.50;81.20;;;;;;4982858;28;20026;-73
2022/02/05 12:05:13;;;;;;;11.25;2.03;;;5.40;81.40;;;;;;4984373;28;20381;-73
2022/02/05 12:07:58;;;;;;;10.43;2.33;;;5.40;80.90;;;;;;4989205;28;20351;-73
2022/02/05 12:10:48;;;;;;;11.18;2.50;;;5.40;82.00;;;;;;4987586;28;20427;-71
2022/02/05 12:13:20;;;;;;;13.05;2.40;;;5.50;82.30;;;;;;4993489;28;20364;-72
2022/02/05 12:15:48;;;;;;;13.13;1.90;;;5.70;82.00;;;;;;4990213;28;20112;-72
2022/02/05 12:18:27;;;;;;;11.60;2.03;;;5.90;82.20;;;;;;4978682;28;20030;-72
2022/02/05 12:20:54;;;;;;;10.30;2.33;;;6.30;82.60;;;;;;4991127;28;20030;-72
2022/02/05 12:23:52;;;;;;;12.77;2.47;;;6.10;80.90;;;;;;4983205;28;20398;-72
2022/02/05 12:26:17;;;;;;;10.23;2.13;;;6.00;82.20;;;;;;4980851;28;20037;-72
2022/02/05 12:28:44;;;;;;;14.68;2.38;;;5.80;82.70;;;;;;4981758;28;20422;-71
2022/02/05 12:31:20;;;;;;;10.40;2.30;;;5.70;82.50;;;;;;4979357;28;20035;-71
2022/02/05 12:33:54;;;;;;;10.77;2.80;;;5.90;82.40;;;;;;4990046;28;20118;-71
2022/02/05 12:36:44;;;;;;;7.75;2.17;;;6.00;82.00;;;;;;4987068;28;20054;-71
2022/02/05 12:39:15;;;;;;;15.75;2.63;;;6.20;80.50;;;;;;4985449;28;20489;-71
2022/02/05 12:41:47;;;;;;;;;;;6.20;80.10;;;;;;4988802;28;20473;-72
2022/02/05 12:44:13;;;;;;;9.82;2.42;;;6.20;78.80;;;;;;4985981;28;19909;-71
2022/02/05 12:46:48;;;;;;;9.32;2.17;;;6.20;80.90;;;;;;4990015;28;20034;-73
2022/02/05 12:49:22;;;;;;;9.95;2.15;;;6.20;79.50;;;;;;4983502;28;20030;-72
2022/02/05 12:51:49;;;;;;;11.57;2.40;;;6.30;80.00;;;;;;4986743;28;20033;-71
2022/02/05 12:54:18;;;;;;;15.75;2.60;;;6.40;79.10;;;;;;4978577;28;20048;-71
2022/02/05 12:56:45;;;;;;;16.65;2.55;;;6.20;80.10;;;;;;4999175;28;20449;-72
2022/02/05 12:59:26;;;;;;;11.10;2.00;;;6.10;79.60;;;;;;4983971;28;20039;-72
2022/02/05 13:01:57;;;;;;;12.55;2.38;;;5.90;79.50;;;;;;4982341;28;20343;-72
2022/02/05 13:04:27;;;;;;;11.20;2.45;;;5.80;80.50;;;;;;4989214;28;20026;-69
2022/02/05 13:07:09;;;;;;;12.38;2.42;;;5.90;80.30;;;;;;4988430;28;20449;-72
2022/02/05 13:09:46;;;;;;;8.95;2.45;;;6.20;80.00;;;;;;4983511;28;20049;-70
2022/02/05 13:12:13;;;;;;;14.63;3.67;;;6.10;79.60;;;;;;4985649;28;20026;-72
2022/02/05 13:14:49;;;;;;;11.43;2.00;;;5.80;79.90;;;;;;4993521;28;20081;-73
2022/02/05 13:17:23;;;;;;;14.73;2.78;;;5.70;81.10;;;;;;4991855;28;20493;-72
2022/02/05 13:28:03;;;;;;;10.63;2.33;;;6.70;79.20;;;;;;4989585;28;20034;-74
2022/02/05 13:36:10;;;;;;;8.77;2.40;;;7.20;77.50;;;;;;4988010;28;20479;-75
2022/02/05 13:41:09;;;;;;;5.93;1.73;;;6.50;77.90;;;;;;4982945;28;20034;-75
2022/02/05 13:43:43;;;;;;;8.57;2.15;;;6.10;79.10;;;;;;4992718;28;20033;-76
2022/02/05 13:46:18;;;;;;;11.73;2.30;;;5.90;80.10;;;;;;4991673;28;20026;-75
2022/02/05 13:48:43;;;;;;;11.77;2.63;;;5.80;80.80;;;;;;4990927;28;20045;-76
2022/02/05 13:51:10;;;;;;;14.15;2.85;;;5.70;81.00;;;;;;4988795;28;20030;-73
2022/02/05 13:53:57;;;;;;;5.85;1.73;;;5.70;80.90;;;;;;5012153;28;20451;-74
2022/02/05 13:56:23;;;;;;;9.15;1.90;;;5.60;80.30;;;;;;4978962;28;20025;-76
2022/02/05 13:58:49;;;;;;;11.75;2.28;;;5.70;80.90;;;;;;4991842;28;20493;-76
2022/02/05 14:01:33;;;;;;;11.20;1.90;;;5.60;80.70;;;;;;4984930;28;20018;-74
2022/02/05 14:04:15;;;;;;;8.27;1.80;;;5.60;80.40;;;;;;4994768;28;20028;-77
2022/02/05 14:06:56;;;;;;;13.52;2.05;;;5.50;80.50;;;;;;4978091;28;20089;-75
2022/02/05 14:09:30;;;;;;;7.05;1.67;;;5.50;80.60;;;;;;4993800;28;20478;-76
2022/02/05 14:11:57;;;;;;;19.17;2.30;;;5.60;80.10;;;;;;4986545;28;20050;-77
2022/02/05 14:14:30;;;;;;;8.98;2.05;;;5.60;79.90;;;;;;4993456;28;20458;-76
2022/02/05 14:16:56;;;;;;;9.05;2.53;;;5.60;80.30;;;;;;4991471;28;20026;-77
2022/02/05 14:19:27;;;;;;;8.82;2.33;;;5.60;80.20;;;;;;4995790;28;20072;-74
2022/02/05 14:21:54;;;;;;;;;;;5.50;80.50;;;;;;4991831;28;20029;-76
2022/02/05 14:24:33;;;;;;;4.63;2.00;;;5.50;80.20;;;;;;4990888;28;20285;-75
2022/02/05 14:27:18;;;;;;;9.23;2.15;;;5.50;79.70;;;;;;4988535;28;20026;-76
2022/02/05 14:40:26;;;;;;;14.85;2.58;;;5.50;80.50;;;;;;4990727;28;20470;-77
2022/02/05 14:42:52;;;;;;;10.35;2.25;;;5.50;80.00;;;;;;4994159;28;20029;-78
2022/02/05 14:45:17;;;;;;;18.38;2.33;;;5.40;80.60;;;;;;4994591;28;20033;-76
2022/02/05 14:47:43;;;;;;;10.38;1.95;;;5.40;81.10;;;;;;4987081;28;20480;-75
2022/02/05 14:50:09;;;;;;;8.07;1.77;;;5.40;80.30;;;;;;4987311;28;20471;-79
2022/02/05 14:52:34;;;;;;;7.32;1.73;;;5.40;79.90;;;;;;4987201;28;20478;-76
2022/02/05 14:55:00;;;;;;;8.85;1.92;;;5.40;80.60;;;;;;4988971;28;20037;-75
2022/02/05 14:57:26;;;;;;;6.78;2.05;;;5.40;80.20;;;;;;4984557;28;20468;-74
2022/02/05 14:59:52;;;;;;;7.53;2.15;;;5.40;80.80;;;;;;4984929;28;20022;-75
2022/02/05 15:02:17;;;;;;;5.97;2.03;;;5.30;81.00;;;;;;4989109;28;20242;-74
2022/02/05 15:04:45;;;;;;;11.98;2.10;;;5.40;80.70;;;;;;4983482;28;20018;-77
2022/02/05 15:07:13;;;;;;;4.93;1.90;;;5.30;80.80;;;;;;4987386;28;20391;-77
2022/02/05 15:09:39;;;;;;;6.57;1.92;;;5.30;80.60;;;;;;4993305;28;20040;-75
2022/02/05 15:12:05;;;;;;;10.23;2.03;;;5.30;81.00;;;;;;4989154;28;20030;-75
2022/02/05 15:14:30;;;;;;;8.43;2.08;;;5.30;81.10;;;;;;4988481;28;20038;-76
2022/02/05 15:16:56;;;;;;;6.50;2.10;;;5.30;80.00;;;;;;4994310;28;20026;-74
2022/02/05 15:19:21;;;;;;;10.02;2.33;;;5.30;80.40;;;;;;4998491;28;20033;-76
2022/02/05 15:21:47;;;;;;;10.23;2.25;;;5.30;80.90;;;;;;4992033;28;20494;-78
2022/02/05 15:24:13;;;;;;;6.32;1.75;;;5.30;80.00;;;;;;5003269;28;20019;-76
2022/02/05 15:26:39;;;;;;;9.27;2.10;;;5.30;80.60;;;;;;4993476;28;20359;-79
2022/02/05 15:29:08;;;;;;;8.65;1.77;;;5.20;80.80;;;;;;4986131;28;20035;-75
2022/02/05 15:31:33;;;;;;;7.63;2.05;;;5.20;80.20;;;;;;4990441;28;20034;-75
2022/02/05 15:34:02;;;;;;;9.13;1.90;;;5.20;80.50;;;;;;4990962;28;20027;-76
2022/02/05 15:44:10;;;;;;;9.60;2.03;;;5.10;80.00;;;;;;4991237;28;20362;-76
2022/02/05 15:46:36;;;;;;;9.88;2.03;;;5.10;80.40;;;;;;4992675;28;20028;-77
2022/02/05 15:49:02;;;;;;;9.75;2.25;;;5.10;80.40;;;;;;4987751;28;20042;-74
2022/02/05 15:51:30;;;;;;;8.07;2.13;;;5.00;80.80;;;;;;4984572;28;20022;-72
2022/02/05 15:54:00;;;;;;;5.32;1.25;;;5.00;80.80;;;;;;4994599;28;20032;-73
2022/02/05 15:56:45;;;;;;;7.35;2.08;;;5.00;80.70;;;;;;4990743;28;20022;-74
2022/02/05 15:59:18;;;;;;;8.57;2.25;;;5.00;80.70;;;;;;4987888;28;20046;-78
2022/02/05 16:01:45;;;;;;;8.20;1.80;;;5.00;80.70;;;;;;4989041;28;20073;-76